Terminal Aerodrome Forecast
Issued by NWS

Home | Current Version | Previous Version | Text Only | Print | Product List | Glossary On
Versions: 1 2 3 4 5 6 7 8 9 10 11 12 13
000
FTUS46 KOTX 290522
TAFMWH
TAF
KMWH 290522Z 2906/3006 16007KT P6SM SCT060 BKN150
     FM291000 VRB04KT P6SM SCT070 BKN150
     FM291600 23010KT P6SM SCT070 SCT120
     FM292000 23016G25KT P6SM SCT070 SCT120
     FM300400 30013KT P6SM SCT200=

USA.gov is the U.S. government's official web portal to all federal, state and local government web resources and services.